sensor_id;sensor_type;location;lat;lon;timestamp;P1;durP1;ratioP1;P2;durP2;ratioP2
22711;SDS011;11523;50.390;8.072;2023-02-22T00:01:59;14.02;;;10.68;;
22711;SDS011;11523;50.390;8.072;2023-02-22T00:04:49;16.65;;;10.50;;
22711;SDS011;11523;50.390;8.072;2023-02-22T00:07:15;16.52;;;10.70;;
22711;SDS011;11523;50.390;8.072;2023-02-22T00:09:41;14.98;;;10.90;;
22711;SDS011;11523;50.390;8.072;2023-02-22T00:12:07;14.35;;;10.57;;
22711;SDS011;11523;50.390;8.072;2023-02-22T00:14:34;17.45;;;11.00;;
22711;SDS011;11523;50.390;8.072;2023-02-22T00:17:00;15.55;;;10.50;;
22711;SDS011;11523;50.390;8.072;2023-02-22T00:19:26;16.40;;;11.05;;
22711;SDS011;11523;50.390;8.072;2023-02-22T00:21:54;15.95;;;11.07;;
22711;SDS011;11523;50.390;8.072;2023-02-22T00:24:22;14.43;;;11.02;;
22711;SDS011;11523;50.390;8.072;2023-02-22T00:26:51;19.85;;;11.80;;
22711;SDS011;11523;50.390;8.072;2023-02-22T00:29:19;14.98;;;10.75;;
22711;SDS011;11523;50.390;8.072;2023-02-22T00:31:45;14.82;;;10.15;;
22711;SDS011;11523;50.390;8.072;2023-02-22T00:34:12;13.88;;;10.63;;
22711;SDS011;11523;50.390;8.072;2023-02-22T00:36:43;16.50;;;10.73;;
22711;SDS011;11523;50.390;8.072;2023-02-22T00:39:09;15.35;;;10.90;;
22711;SDS011;11523;50.390;8.072;2023-02-22T00:41:35;15.43;;;10.70;;
22711;SDS011;11523;50.390;8.072;2023-02-22T00:44:01;12.13;;;9.73;;
22711;SDS011;11523;50.390;8.072;2023-02-22T00:46:27;15.65;;;10.93;;
22711;SDS011;11523;50.390;8.072;2023-02-22T00:48:53;18.58;;;10.02;;
22711;SDS011;11523;50.390;8.072;2023-02-22T00:51:19;12.65;;;10.18;;
22711;SDS011;11523;50.390;8.072;2023-02-22T00:53:44;14.70;;;9.93;;
22711;SDS011;11523;50.390;8.072;2023-02-22T00:56:10;15.90;;;10.05;;
22711;SDS011;11523;50.390;8.072;2023-02-22T00:58:36;15.32;;;10.95;;
22711;SDS011;11523;50.390;8.072;2023-02-22T01:01:02;17.02;;;10.43;;
22711;SDS011;11523;50.390;8.072;2023-02-22T01:03:28;17.67;;;11.27;;
22711;SDS011;11523;50.390;8.072;2023-02-22T01:05:56;13.15;;;9.65;;
22711;SDS011;11523;50.390;8.072;2023-02-22T01:08:22;13.57;;;9.80;;
22711;SDS011;11523;50.390;8.072;2023-02-22T01:10:49;14.57;;;10.82;;
22711;SDS011;11523;50.390;8.072;2023-02-22T01:13:16;11.75;;;9.25;;
22711;SDS011;11523;50.390;8.072;2023-02-22T01:15:43;15.40;;;9.60;;
22711;SDS011;11523;50.390;8.072;2023-02-22T01:18:10;13.63;;;9.88;;
22711;SDS011;11523;50.390;8.072;2023-02-22T01:20:36;14.63;;;9.98;;
22711;SDS011;11523;50.390;8.072;2023-02-22T01:23:04;15.55;;;10.93;;
22711;SDS011;11523;50.390;8.072;2023-02-22T01:25:36;11.68;;;9.50;;
22711;SDS011;11523;50.390;8.072;2023-02-22T01:28:02;14.18;;;9.93;;
22711;SDS011;11523;50.390;8.072;2023-02-22T01:30:30;13.27;;;9.50;;
22711;SDS011;11523;50.390;8.072;2023-02-22T01:32:57;13.70;;;10.43;;
22711;SDS011;11523;50.390;8.072;2023-02-22T01:35:25;12.93;;;9.93;;
22711;SDS011;11523;50.390;8.072;2023-02-22T01:37:51;13.75;;;9.32;;
22711;SDS011;11523;50.390;8.072;2023-02-22T01:40:25;13.35;;;10.02;;
22711;SDS011;11523;50.390;8.072;2023-02-22T01:42:52;7.97;;;7.00;;
22711;SDS011;11523;50.390;8.072;2023-02-22T01:50:32;14.82;;;10.90;;
22711;SDS011;11523;50.390;8.072;2023-02-22T01:52:59;13.85;;;10.48;;
22711;SDS011;11523;50.390;8.072;2023-02-22T01:55:25;15.57;;;10.27;;
22711;SDS011;11523;50.390;8.072;2023-02-22T01:57:51;14.90;;;10.10;;
22711;SDS011;11523;50.390;8.072;2023-02-22T02:00:17;12.73;;;9.98;;
22711;SDS011;11523;50.390;8.072;2023-02-22T02:02:46;13.13;;;9.63;;
22711;SDS011;11523;50.390;8.072;2023-02-22T02:05:15;15.23;;;11.18;;
22711;SDS011;11523;50.390;8.072;2023-02-22T02:07:41;14.23;;;10.27;;
22711;SDS011;11523;50.390;8.072;2023-02-22T02:10:11;13.25;;;10.43;;
22711;SDS011;11523;50.390;8.072;2023-02-22T02:12:38;13.35;;;11.30;;
22711;SDS011;11523;50.390;8.072;2023-02-22T02:17:51;17.17;;;10.57;;
22711;SDS011;11523;50.390;8.072;2023-02-22T02:20:22;17.45;;;11.25;;
22711;SDS011;11523;50.390;8.072;2023-02-22T02:23:03;15.13;;;11.50;;
22711;SDS011;11523;50.390;8.072;2023-02-22T02:28:14;16.13;;;12.02;;
22711;SDS011;11523;50.390;8.072;2023-02-22T02:38:38;15.80;;;10.93;;
22711;SDS011;11523;50.390;8.072;2023-02-22T02:41:10;15.57;;;10.05;;
22711;SDS011;11523;50.390;8.072;2023-02-22T02:48:51;21.83;;;11.85;;
22711;SDS011;11523;50.390;8.072;2023-02-22T02:51:20;17.40;;;12.00;;
22711;SDS011;11523;50.390;8.072;2023-02-22T02:53:47;29.88;;;13.15;;
22711;SDS011;11523;50.390;8.072;2023-02-22T02:56:15;19.90;;;12.07;;
22711;SDS011;11523;50.390;8.072;2023-02-22T02:58:43;20.67;;;12.98;;
22711;SDS011;11523;50.390;8.072;2023-02-22T03:01:09;23.15;;;13.05;;
22711;SDS011;11523;50.390;8.072;2023-02-22T03:06:07;17.17;;;11.73;;
22711;SDS011;11523;50.390;8.072;2023-02-22T03:08:49;17.58;;;11.95;;
22711;SDS011;11523;50.390;8.072;2023-02-22T03:11:18;21.40;;;12.15;;
22711;SDS011;11523;50.390;8.072;2023-02-22T03:24:05;43.67;;;13.77;;
22711;SDS011;11523;50.390;8.072;2023-02-22T03:26:34;36.20;;;13.20;;
22711;SDS011;11523;50.390;8.072;2023-02-22T03:29:03;31.73;;;14.23;;
22711;SDS011;11523;50.390;8.072;2023-02-22T03:31:32;31.38;;;14.52;;
22711;SDS011;11523;50.390;8.072;2023-02-22T03:34:02;35.15;;;14.13;;
22711;SDS011;11523;50.390;8.072;2023-02-22T03:36:32;35.20;;;15.00;;
22711;SDS011;11523;50.390;8.072;2023-02-22T03:38:59;36.90;;;14.77;;
22711;SDS011;11523;50.390;8.072;2023-02-22T03:41:28;30.85;;;14.25;;
22711;SDS011;11523;50.390;8.072;2023-02-22T03:43:57;42.72;;;15.43;;
22711;SDS011;11523;50.390;8.072;2023-02-22T03:46:24;44.30;;;15.23;;
22711;SDS011;11523;50.390;8.072;2023-02-22T03:51:21;45.88;;;16.05;;
22711;SDS011;11523;50.390;8.072;2023-02-22T03:53:47;61.55;;;15.00;;
22711;SDS011;11523;50.390;8.072;2023-02-22T03:56:17;65.35;;;15.02;;
22711;SDS011;11523;50.390;8.072;2023-02-22T03:58:44;66.30;;;13.73;;
22711;SDS011;11523;50.390;8.072;2023-02-22T04:01:14;88.30;;;15.07;;
22711;SDS011;11523;50.390;8.072;2023-02-22T04:03:40;84.47;;;14.20;;
22711;SDS011;11523;50.390;8.072;2023-02-22T04:06:07;67.72;;;14.07;;
22711;SDS011;11523;50.390;8.072;2023-02-22T04:08:33;45.08;;;13.48;;
22711;SDS011;11523;50.390;8.072;2023-02-22T04:11:00;84.00;;;14.65;;
22711;SDS011;11523;50.390;8.072;2023-02-22T04:13:26;78.78;;;14.02;;
22711;SDS011;11523;50.390;8.072;2023-02-22T04:15:52;114.05;;;14.80;;
22711;SDS011;11523;50.390;8.072;2023-02-22T04:18:18;96.30;;;15.10;;
22711;SDS011;11523;50.390;8.072;2023-02-22T04:20:44;88.60;;;14.18;;
22711;SDS011;11523;50.390;8.072;2023-02-22T04:23:16;59.25;;;13.80;;
22711;SDS011;11523;50.390;8.072;2023-02-22T04:25:42;47.03;;;13.60;;
22711;SDS011;11523;50.390;8.072;2023-02-22T04:28:08;58.13;;;13.77;;
22711;SDS011;11523;50.390;8.072;2023-02-22T04:30:34;65.20;;;14.30;;
22711;SDS011;11523;50.390;8.072;2023-02-22T04:33:00;71.63;;;14.00;;
22711;SDS011;11523;50.390;8.072;2023-02-22T04:35:26;73.30;;;12.90;;
22711;SDS011;11523;50.390;8.072;2023-02-22T04:37:51;52.15;;;13.20;;
22711;SDS011;11523;50.390;8.072;2023-02-22T04:40:17;72.72;;;14.02;;
22711;SDS011;11523;50.390;8.072;2023-02-22T04:42:44;78.60;;;13.25;;
22711;SDS011;11523;50.390;8.072;2023-02-22T04:45:10;87.07;;;13.15;;
22711;SDS011;11523;50.390;8.072;2023-02-22T04:47:36;130.45;;;14.32;;
22711;SDS011;11523;50.390;8.072;2023-02-22T04:50:08;86.10;;;13.23;;
22711;SDS011;11523;50.390;8.072;2023-02-22T04:52:34;69.80;;;12.57;;
22711;SDS011;11523;50.390;8.072;2023-02-22T04:55:00;62.35;;;13.05;;
22711;SDS011;11523;50.390;8.072;2023-02-22T04:57:26;81.93;;;13.00;;
22711;SDS011;11523;50.390;8.072;2023-02-22T04:59:52;81.85;;;12.82;;
22711;SDS011;11523;50.390;8.072;2023-02-22T05:02:18;72.68;;;13.15;;
22711;SDS011;11523;50.390;8.072;2023-02-22T05:04:44;56.95;;;12.40;;
22711;SDS011;11523;50.390;8.072;2023-02-22T05:07:10;47.58;;;12.18;;
22711;SDS011;11523;50.390;8.072;2023-02-22T05:09:36;56.55;;;11.85;;
22711;SDS011;11523;50.390;8.072;2023-02-22T05:12:02;47.95;;;11.88;;
22711;SDS011;11523;50.390;8.072;2023-02-22T05:14:28;54.13;;;12.55;;
22711;SDS011;11523;50.390;8.072;2023-02-22T05:16:55;38.67;;;11.40;;
22711;SDS011;11523;50.390;8.072;2023-02-22T05:19:21;43.75;;;12.55;;
22711;SDS011;11523;50.390;8.072;2023-02-22T05:21:47;40.25;;;12.38;;
22711;SDS011;11523;50.390;8.072;2023-02-22T05:24:13;34.70;;;12.05;;
22711;SDS011;11523;50.390;8.072;2023-02-22T05:26:39;62.40;;;13.00;;
22711;SDS011;11523;50.390;8.072;2023-02-22T05:29:05;69.50;;;13.27;;
22711;SDS011;11523;50.390;8.072;2023-02-22T05:31:31;58.38;;;12.88;;
22711;SDS011;11523;50.390;8.072;2023-02-22T05:33:57;75.38;;;14.05;;
22711;SDS011;11523;50.390;8.072;2023-02-22T05:36:23;68.55;;;13.50;;
22711;SDS011;11523;50.390;8.072;2023-02-22T05:38:49;72.88;;;13.40;;
22711;SDS011;11523;50.390;8.072;2023-02-22T05:41:15;82.00;;;13.65;;
22711;SDS011;11523;50.390;8.072;2023-02-22T05:43:41;62.28;;;13.13;;
22711;SDS011;11523;50.390;8.072;2023-02-22T05:46:07;56.88;;;13.68;;
22711;SDS011;11523;50.390;8.072;2023-02-22T05:48:33;78.00;;;13.68;;
22711;SDS011;11523;50.390;8.072;2023-02-22T05:50:59;47.83;;;13.02;;
22711;SDS011;11523;50.390;8.072;2023-02-22T05:53:25;49.45;;;12.73;;
22711;SDS011;11523;50.390;8.072;2023-02-22T05:55:51;23.17;;;13.75;;
22711;SDS011;11523;50.390;8.072;2023-02-22T05:58:17;87.45;;;13.82;;
22711;SDS011;11523;50.390;8.072;2023-02-22T06:00:43;52.03;;;13.27;;
22711;SDS011;11523;50.390;8.072;2023-02-22T06:03:09;79.07;;;13.82;;
22711;SDS011;11523;50.390;8.072;2023-02-22T06:05:36;60.88;;;13.32;;
22711;SDS011;11523;50.390;8.072;2023-02-22T06:08:04;45.88;;;13.57;;
22711;SDS011;11523;50.390;8.072;2023-02-22T06:10:30;86.28;;;14.10;;
22711;SDS011;11523;50.390;8.072;2023-02-22T06:12:56;80.78;;;13.88;;
22711;SDS011;11523;50.390;8.072;2023-02-22T06:15:22;79.85;;;15.10;;
22711;SDS011;11523;50.390;8.072;2023-02-22T06:17:49;71.72;;;14.98;;
22711;SDS011;11523;50.390;8.072;2023-02-22T06:20:18;60.33;;;13.90;;
22711;SDS011;11523;50.390;8.072;2023-02-22T06:22:48;77.47;;;14.18;;
22711;SDS011;11523;50.390;8.072;2023-02-22T06:25:15;113.10;;;15.48;;
22711;SDS011;11523;50.390;8.072;2023-02-22T06:27:41;88.22;;;14.13;;
22711;SDS011;11523;50.390;8.072;2023-02-22T06:30:07;85.05;;;14.63;;
22711;SDS011;11523;50.390;8.072;2023-02-22T06:32:34;65.15;;;12.68;;
22711;SDS011;11523;50.390;8.072;2023-02-22T06:35:00;81.30;;;14.25;;
22711;SDS011;11523;50.390;8.072;2023-02-22T06:37:25;54.33;;;13.90;;
22711;SDS011;11523;50.390;8.072;2023-02-22T06:39:51;27.50;;;13.45;;
22711;SDS011;11523;50.390;8.072;2023-02-22T06:42:17;61.97;;;13.63;;
22711;SDS011;11523;50.390;8.072;2023-02-22T06:44:43;45.15;;;14.05;;
22711;SDS011;11523;50.390;8.072;2023-02-22T06:47:09;22.08;;;13.10;;
22711;SDS011;11523;50.390;8.072;2023-02-22T06:49:35;26.95;;;13.13;;
22711;SDS011;11523;50.390;8.072;2023-02-22T06:52:03;24.17;;;13.27;;
22711;SDS011;11523;50.390;8.072;2023-02-22T06:54:29;24.75;;;12.73;;
22711;SDS011;11523;50.390;8.072;2023-02-22T06:56:55;29.85;;;13.88;;
22711;SDS011;11523;50.390;8.072;2023-02-22T06:59:21;36.22;;;14.32;;
22711;SDS011;11523;50.390;8.072;2023-02-22T07:01:47;29.98;;;13.48;;
22711;SDS011;11523;50.390;8.072;2023-02-22T07:04:14;31.27;;;13.48;;
22711;SDS011;11523;50.390;8.072;2023-02-22T07:06:46;46.45;;;13.38;;
22711;SDS011;11523;50.390;8.072;2023-02-22T07:09:12;35.60;;;13.40;;
22711;SDS011;11523;50.390;8.072;2023-02-22T07:11:38;36.13;;;13.77;;
22711;SDS011;11523;50.390;8.072;2023-02-22T07:14:04;34.45;;;14.60;;
22711;SDS011;11523;50.390;8.072;2023-02-22T07:16:30;46.42;;;14.25;;
22711;SDS011;11523;50.390;8.072;2023-02-22T07:19:03;66.47;;;15.05;;
22711;SDS011;11523;50.390;8.072;2023-02-22T07:21:29;68.30;;;13.82;;
22711;SDS011;11523;50.390;8.072;2023-02-22T07:23:55;53.00;;;14.23;;
22711;SDS011;11523;50.390;8.072;2023-02-22T07:26:22;43.25;;;13.60;;
22711;SDS011;11523;50.390;8.072;2023-02-22T07:28:48;50.90;;;14.95;;
22711;SDS011;11523;50.390;8.072;2023-02-22T07:31:14;42.22;;;14.75;;
22711;SDS011;11523;50.390;8.072;2023-02-22T07:33:40;49.60;;;13.40;;
22711;SDS011;11523;50.390;8.072;2023-02-22T07:36:06;38.08;;;14.27;;
22711;SDS011;11523;50.390;8.072;2023-02-22T07:38:33;41.22;;;13.80;;
22711;SDS011;11523;50.390;8.072;2023-02-22T07:40:59;32.13;;;13.10;;
22711;SDS011;11523;50.390;8.072;2023-02-22T07:43:26;35.03;;;14.07;;
22711;SDS011;11523;50.390;8.072;2023-02-22T07:45:54;54.90;;;13.68;;
22711;SDS011;11523;50.390;8.072;2023-02-22T07:48:21;45.92;;;13.90;;
22711;SDS011;11523;50.390;8.072;2023-02-22T07:50:47;23.08;;;14.45;;
22711;SDS011;11523;50.390;8.072;2023-02-22T07:53:14;30.10;;;13.75;;
22711;SDS011;11523;50.390;8.072;2023-02-22T07:55:41;33.38;;;14.77;;
22711;SDS011;11523;50.390;8.072;2023-02-22T07:58:08;37.47;;;13.30;;
22711;SDS011;11523;50.390;8.072;2023-02-22T08:00:37;50.03;;;13.73;;
22711;SDS011;11523;50.390;8.072;2023-02-22T08:03:05;36.22;;;13.93;;
22711;SDS011;11523;50.390;8.072;2023-02-22T08:05:31;42.45;;;13.35;;
22711;SDS011;11523;50.390;8.072;2023-02-22T08:07:57;45.65;;;14.60;;
22711;SDS011;11523;50.390;8.072;2023-02-22T08:10:25;53.85;;;13.98;;
22711;SDS011;11523;50.390;8.072;2023-02-22T08:12:51;28.63;;;13.20;;
22711;SDS011;11523;50.390;8.072;2023-02-22T08:15:18;70.65;;;13.63;;
22711;SDS011;11523;50.390;8.072;2023-02-22T08:17:45;34.40;;;13.50;;
22711;SDS011;11523;50.390;8.072;2023-02-22T08:20:11;70.55;;;14.20;;
22711;SDS011;11523;50.390;8.072;2023-02-22T08:22:37;31.65;;;12.82;;
22711;SDS011;11523;50.390;8.072;2023-02-22T08:25:04;39.15;;;13.65;;
22711;SDS011;11523;50.390;8.072;2023-02-22T08:27:30;37.75;;;12.68;;
22711;SDS011;11523;50.390;8.072;2023-02-22T08:29:57;32.03;;;13.00;;
22711;SDS011;11523;50.390;8.072;2023-02-22T08:32:23;38.45;;;13.60;;
22711;SDS011;11523;50.390;8.072;2023-02-22T08:34:49;39.20;;;13.55;;
22711;SDS011;11523;50.390;8.072;2023-02-22T08:37:16;42.08;;;13.13;;
22711;SDS011;11523;50.390;8.072;2023-02-22T08:39:42;36.97;;;13.35;;
22711;SDS011;11523;50.390;8.072;2023-02-22T08:42:08;28.38;;;12.98;;
22711;SDS011;11523;50.390;8.072;2023-02-22T08:44:35;48.30;;;13.27;;
22711;SDS011;11523;50.390;8.072;2023-02-22T08:47:01;52.67;;;13.20;;
22711;SDS011;11523;50.390;8.072;2023-02-22T08:49:27;52.97;;;12.52;;
22711;SDS011;11523;50.390;8.072;2023-02-22T08:51:52;40.10;;;13.82;;
22711;SDS011;11523;50.390;8.072;2023-02-22T08:54:18;25.50;;;14.00;;
22711;SDS011;11523;50.390;8.072;2023-02-22T08:56:46;24.40;;;13.80;;
22711;SDS011;11523;50.390;8.072;2023-02-22T08:59:12;41.08;;;14.52;;
22711;SDS011;11523;50.390;8.072;2023-02-22T09:01:38;28.05;;;14.90;;
22711;SDS011;11523;50.390;8.072;2023-02-22T09:04:04;28.35;;;14.93;;
22711;SDS011;11523;50.390;8.072;2023-02-22T09:06:30;45.15;;;14.85;;
22711;SDS011;11523;50.390;8.072;2023-02-22T09:08:56;49.33;;;15.77;;
22711;SDS011;11523;50.390;8.072;2023-02-22T09:11:22;67.47;;;15.82;;
22711;SDS011;11523;50.390;8.072;2023-02-22T09:13:48;41.30;;;15.48;;
22711;SDS011;11523;50.390;8.072;2023-02-22T09:16:14;40.35;;;17.13;;
22711;SDS011;11523;50.390;8.072;2023-02-22T09:18:40;94.68;;;18.80;;
22711;SDS011;11523;50.390;8.072;2023-02-22T09:21:06;53.88;;;19.38;;
22711;SDS011;11523;50.390;8.072;2023-02-22T09:23:31;69.85;;;20.25;;
22711;SDS011;11523;50.390;8.072;2023-02-22T09:25:58;39.88;;;18.63;;
22711;SDS011;11523;50.390;8.072;2023-02-22T09:28:25;42.22;;;18.98;;
22711;SDS011;11523;50.390;8.072;2023-02-22T09:30:51;38.65;;;20.23;;
22711;SDS011;11523;50.390;8.072;2023-02-22T09:33:18;39.17;;;17.58;;
22711;SDS011;11523;50.390;8.072;2023-02-22T09:35:44;42.47;;;19.02;;
22711;SDS011;11523;50.390;8.072;2023-02-22T09:38:12;29.17;;;18.00;;
22711;SDS011;11523;50.390;8.072;2023-02-22T09:40:40;34.72;;;16.13;;
22711;SDS011;11523;50.390;8.072;2023-02-22T09:48:23;32.28;;;18.73;;
22711;SDS011;11523;50.390;8.072;2023-02-22T09:50:50;34.78;;;17.70;;
22711;SDS011;11523;50.390;8.072;2023-02-22T09:53:39;59.70;;;18.38;;
22711;SDS011;11523;50.390;8.072;2023-02-22T09:56:15;35.60;;;18.65;;
22711;SDS011;11523;50.390;8.072;2023-02-22T10:01:27;47.40;;;18.08;;
22711;SDS011;11523;50.390;8.072;2023-02-22T10:04:03;45.78;;;18.10;;
22711;SDS011;11523;50.390;8.072;2023-02-22T10:06:29;31.58;;;19.55;;
22711;SDS011;11523;50.390;8.072;2023-02-22T10:08:58;28.98;;;18.27;;
22711;SDS011;11523;50.390;8.072;2023-02-22T10:11:39;29.70;;;18.88;;
22711;SDS011;11523;50.390;8.072;2023-02-22T10:14:24;41.72;;;21.00;;
22711;SDS011;11523;50.390;8.072;2023-02-22T10:17:01;33.45;;;19.27;;
22711;SDS011;11523;50.390;8.072;2023-02-22T10:26:51;34.58;;;20.67;;
22711;SDS011;11523;50.390;8.072;2023-02-22T10:31:51;32.30;;;20.25;;
22711;SDS011;11523;50.390;8.072;2023-02-22T10:34:20;32.38;;;20.30;;
22711;SDS011;11523;50.390;8.072;2023-02-22T10:36:49;32.55;;;20.70;;
22711;SDS011;11523;50.390;8.072;2023-02-22T10:39:29;33.35;;;19.75;;
22711;SDS011;11523;50.390;8.072;2023-02-22T10:41:56;31.63;;;19.70;;
22711;SDS011;11523;50.390;8.072;2023-02-22T10:44:29;33.20;;;19.98;;
22711;SDS011;11523;50.390;8.072;2023-02-22T10:46:55;35.65;;;21.10;;
22711;SDS011;11523;50.390;8.072;2023-02-22T10:49:23;31.73;;;20.58;;
22711;SDS011;11523;50.390;8.072;2023-02-22T10:51:59;30.73;;;19.35;;
22711;SDS011;11523;50.390;8.072;2023-02-22T10:54:38;29.83;;;19.23;;
22711;SDS011;11523;50.390;8.072;2023-02-22T10:57:05;27.67;;;18.90;;
22711;SDS011;11523;50.390;8.072;2023-02-22T10:59:36;28.38;;;19.35;;
22711;SDS011;11523;50.390;8.072;2023-02-22T11:02:07;30.20;;;19.05;;
22711;SDS011;11523;50.390;8.072;2023-02-22T11:04:48;25.17;;;17.30;;
22711;SDS011;11523;50.390;8.072;2023-02-22T11:09:49;25.33;;;18.10;;
22711;SDS011;11523;50.390;8.072;2023-02-22T11:12:17;26.20;;;18.15;;
22711;SDS011;11523;50.390;8.072;2023-02-22T11:14:43;25.88;;;17.90;;
22711;SDS011;11523;50.390;8.072;2023-02-22T11:17:09;23.25;;;17.02;;
22711;SDS011;11523;50.390;8.072;2023-02-22T11:19:38;25.88;;;18.65;;
22711;SDS011;11523;50.390;8.072;2023-02-22T11:22:11;24.40;;;16.60;;
22711;SDS011;11523;50.390;8.072;2023-02-22T11:24:45;28.08;;;18.17;;
22711;SDS011;11523;50.390;8.072;2023-02-22T11:30:11;25.65;;;17.70;;
22711;SDS011;11523;50.390;8.072;2023-02-22T11:32:44;23.85;;;16.92;;
22711;SDS011;11523;50.390;8.072;2023-02-22T11:35:19;24.90;;;17.52;;
22711;SDS011;11523;50.390;8.072;2023-02-22T11:37:45;24.02;;;17.52;;
22711;SDS011;11523;50.390;8.072;2023-02-22T11:40:13;25.67;;;17.90;;
22711;SDS011;11523;50.390;8.072;2023-02-22T11:42:44;26.48;;;18.15;;
22711;SDS011;11523;50.390;8.072;2023-02-22T11:50:16;29.63;;;19.40;;
22711;SDS011;11523;50.390;8.072;2023-02-22T11:52:46;31.33;;;20.42;;
22711;SDS011;11523;50.390;8.072;2023-02-22T11:55:16;32.33;;;20.45;;
22711;SDS011;11523;50.390;8.072;2023-02-22T11:57:54;30.40;;;20.38;;
22711;SDS011;11523;50.390;8.072;2023-02-22T12:03:24;32.67;;;21.35;;
22711;SDS011;11523;50.390;8.072;2023-02-22T12:06:14;35.75;;;23.13;;
22711;SDS011;11523;50.390;8.072;2023-02-22T12:08:58;40.63;;;22.77;;
22711;SDS011;11523;50.390;8.072;2023-02-22T12:16:56;35.65;;;22.52;;
22711;SDS011;11523;50.390;8.072;2023-02-22T12:19:39;35.05;;;23.02;;
22711;SDS011;11523;50.390;8.072;2023-02-22T12:22:09;40.60;;;24.58;;
22711;SDS011;11523;50.390;8.072;2023-02-22T12:24:38;36.67;;;24.20;;
22711;SDS011;11523;50.390;8.072;2023-02-22T12:27:06;38.50;;;26.35;;
22711;SDS011;11523;50.390;8.072;2023-02-22T12:29:38;39.50;;;27.73;;
22711;SDS011;11523;50.390;8.072;2023-02-22T12:34:36;39.05;;;26.27;;
22711;SDS011;11523;50.390;8.072;2023-02-22T12:37:19;37.75;;;25.85;;
22711;SDS011;11523;50.390;8.072;2023-02-22T12:42:26;41.30;;;28.17;;
22711;SDS011;11523;50.390;8.072;2023-02-22T12:45:00;33.85;;;24.75;;
22711;SDS011;11523;50.390;8.072;2023-02-22T12:47:33;31.13;;;23.30;;
22711;SDS011;11523;50.390;8.072;2023-02-22T12:50:20;27.63;;;21.35;;
22711;SDS011;11523;50.390;8.072;2023-02-22T12:52:58;27.15;;;20.38;;
22711;SDS011;11523;50.390;8.072;2023-02-22T12:55:37;30.17;;;21.40;;
22711;SDS011;11523;50.390;8.072;2023-02-22T12:58:20;28.38;;;20.10;;
22711;SDS011;11523;50.390;8.072;2023-02-22T13:00:50;28.00;;;20.00;;
22711;SDS011;11523;50.390;8.072;2023-02-22T13:08:40;27.45;;;21.33;;
22711;SDS011;11523;50.390;8.072;2023-02-22T13:21:56;24.38;;;17.88;;
22711;SDS011;11523;50.390;8.072;2023-02-22T13:25:24;22.63;;;17.85;;
22711;SDS011;11523;50.390;8.072;2023-02-22T13:27:19;22.80;;;18.90;;
22711;SDS011;11523;50.390;8.072;2023-02-22T13:29:50;21.90;;;17.88;;
22711;SDS011;11523;50.390;8.072;2023-02-22T13:35:13;23.65;;;17.77;;
22711;SDS011;11523;50.390;8.072;2023-02-22T13:52:52;23.45;;;17.77;;
22711;SDS011;11523;50.390;8.072;2023-02-22T13:55:20;25.67;;;19.60;;
22711;SDS011;11523;50.390;8.072;2023-02-22T13:57:51;27.13;;;20.27;;
22711;SDS011;11523;50.390;8.072;2023-02-22T14:00:38;31.38;;;19.35;;
22711;SDS011;11523;50.390;8.072;2023-02-22T14:11:00;26.80;;;20.35;;
22711;SDS011;11523;50.390;8.072;2023-02-22T14:13:28;26.88;;;19.95;;
22711;SDS011;11523;50.390;8.072;2023-02-22T14:21:04;25.75;;;19.45;;
22711;SDS011;11523;50.390;8.072;2023-02-22T14:23:37;27.55;;;19.98;;
22711;SDS011;11523;50.390;8.072;2023-02-22T14:26:13;27.55;;;18.85;;
22711;SDS011;11523;50.390;8.072;2023-02-22T14:31:55;21.77;;;18.02;;
22711;SDS011;11523;50.390;8.072;2023-02-22T14:34:37;22.83;;;18.35;;
22711;SDS011;11523;50.390;8.072;2023-02-22T14:37:15;24.00;;;19.17;;
22711;SDS011;11523;50.390;8.072;2023-02-22T14:40:25;23.55;;;19.20;;
22711;SDS011;11523;50.390;8.072;2023-02-22T14:42:38;24.20;;;18.98;;
22711;SDS011;11523;50.390;8.072;2023-02-22T14:47:38;26.60;;;20.17;;
22711;SDS011;11523;50.390;8.072;2023-02-22T14:50:12;26.40;;;20.13;;
22711;SDS011;11523;50.390;8.072;2023-02-22T14:52:39;23.70;;;19.42;;
22711;SDS011;11523;50.390;8.072;2023-02-22T14:58:06;25.77;;;19.35;;
22711;SDS011;11523;50.390;8.072;2023-02-22T15:00:27;27.15;;;18.75;;
22711;SDS011;11523;50.390;8.072;2023-02-22T15:02:57;27.80;;;19.63;;
22711;SDS011;11523;50.390;8.072;2023-02-22T15:05:24;24.98;;;19.35;;
22711;SDS011;11523;50.390;8.072;2023-02-22T15:08:00;24.17;;;19.20;;
22711;SDS011;11523;50.390;8.072;2023-02-22T15:10:28;23.27;;;17.98;;
22711;SDS011;11523;50.390;8.072;2023-02-22T15:12:56;25.55;;;18.40;;
22711;SDS011;11523;50.390;8.072;2023-02-22T15:15:32;23.70;;;19.15;;
22711;SDS011;11523;50.390;8.072;2023-02-22T15:17:59;24.20;;;19.23;;
22711;SDS011;11523;50.390;8.072;2023-02-22T15:20:25;22.83;;;19.00;;
22711;SDS011;11523;50.390;8.072;2023-02-22T15:22:56;27.35;;;19.60;;
22711;SDS011;11523;50.390;8.072;2023-02-22T15:25:24;26.15;;;18.75;;
22711;SDS011;11523;50.390;8.072;2023-02-22T15:27:50;25.42;;;18.58;;
22711;SDS011;11523;50.390;8.072;2023-02-22T15:32:42;26.27;;;18.05;;
22711;SDS011;11523;50.390;8.072;2023-02-22T15:37:37;24.17;;;17.88;;
22711;SDS011;11523;50.390;8.072;2023-02-22T15:40:07;22.05;;;17.38;;
22711;SDS011;11523;50.390;8.072;2023-02-22T15:42:45;20.15;;;17.83;;
22711;SDS011;11523;50.390;8.072;2023-02-22T15:45:19;22.70;;;17.50;;
22711;SDS011;11523;50.390;8.072;2023-02-22T15:47:45;24.03;;;17.77;;
22711;SDS011;11523;50.390;8.072;2023-02-22T15:50:16;24.92;;;18.33;;
22711;SDS011;11523;50.390;8.072;2023-02-22T15:52:49;25.23;;;18.13;;
22711;SDS011;11523;50.390;8.072;2023-02-22T15:55:17;24.65;;;18.25;;
22711;SDS011;11523;50.390;8.072;2023-02-22T15:57:43;21.15;;;16.73;;
22711;SDS011;11523;50.390;8.072;2023-02-22T16:02:59;22.83;;;17.50;;
22711;SDS011;11523;50.390;8.072;2023-02-22T16:05:45;22.00;;;17.40;;
22711;SDS011;11523;50.390;8.072;2023-02-22T16:08:13;19.38;;;16.92;;
22711;SDS011;11523;50.390;8.072;2023-02-22T16:10:40;22.83;;;17.77;;
22711;SDS011;11523;50.390;8.072;2023-02-22T16:13:23;24.08;;;17.35;;
22711;SDS011;11523;50.390;8.072;2023-02-22T16:15:53;20.83;;;16.70;;
22711;SDS011;11523;50.390;8.072;2023-02-22T16:18:25;22.60;;;16.67;;
22711;SDS011;11523;50.390;8.072;2023-02-22T16:20:56;22.25;;;17.52;;
22711;SDS011;11523;50.390;8.072;2023-02-22T16:23:24;22.58;;;18.48;;
22711;SDS011;11523;50.390;8.072;2023-02-22T16:26:00;21.95;;;18.02;;
22711;SDS011;11523;50.390;8.072;2023-02-22T16:28:27;23.90;;;17.60;;
22711;SDS011;11523;50.390;8.072;2023-02-22T16:31:07;23.75;;;17.23;;
22711;SDS011;11523;50.390;8.072;2023-02-22T16:33:33;27.52;;;17.90;;
22711;SDS011;11523;50.390;8.072;2023-02-22T16:36:05;20.23;;;16.42;;
22711;SDS011;11523;50.390;8.072;2023-02-22T16:38:32;21.42;;;16.92;;
22711;SDS011;11523;50.390;8.072;2023-02-22T16:41:02;21.42;;;16.92;;
22711;SDS011;11523;50.390;8.072;2023-02-22T16:43:29;21.25;;;17.08;;
22711;SDS011;11523;50.390;8.072;2023-02-22T16:45:57;23.83;;;17.80;;
22711;SDS011;11523;50.390;8.072;2023-02-22T16:48:25;23.55;;;17.77;;
22711;SDS011;11523;50.390;8.072;2023-02-22T16:50:54;25.20;;;17.65;;
22711;SDS011;11523;50.390;8.072;2023-02-22T16:53:21;20.67;;;16.73;;
22711;SDS011;11523;50.390;8.072;2023-02-22T16:55:47;22.63;;;16.15;;